sensor_id;sensor_type;location;lat;lon;timestamp;pressure;altitude;pressure_sealevel;temperature
59339;BMP280;45117;50.960;5.500;2022-09-28T07:32:08;98888.31;;;20.09
59339;BMP280;45117;50.960;5.500;2022-09-28T07:34:35;98894.41;;;20.63
59339;BMP280;45117;50.960;5.500;2022-09-28T07:37:05;98896.25;;;20.07
59339;BMP280;45117;50.960;5.500;2022-09-28T07:39:36;98896.25;;;20.31
59339;BMP280;45117;50.960;5.500;2022-09-28T07:42:23;98894.91;;;19.64
59339;BMP280;45117;50.960;5.500;2022-09-28T07:44:49;98901.97;;;18.38
59339;BMP280;45117;50.960;5.500;2022-09-28T07:47:17;98905.97;;;16.83
59339;BMP280;45117;50.960;5.500;2022-09-28T07:49:50;98909.38;;;18.16
59339;BMP280;45117;50.960;5.500;2022-09-28T07:52:18;98913.84;;;18.30
59339;BMP280;45117;50.960;5.500;2022-09-28T07:54:47;98912.81;;;17.43
59339;BMP280;45117;50.960;5.500;2022-09-28T07:57:16;98913.59;;;16.84
59339;BMP280;45117;50.960;5.500;2022-09-28T07:59:42;98922.00;;;16.12
59339;BMP280;45117;50.960;5.500;2022-09-28T08:02:10;98935.56;;;16.92
59339;BMP280;45117;50.960;5.500;2022-09-28T08:04:38;98925.41;;;16.07
59339;BMP280;45117;50.960;5.500;2022-09-28T08:07:07;98927.16;;;15.58
59339;BMP280;45117;50.960;5.500;2022-09-28T08:09:34;98933.75;;;15.78
59339;BMP280;45117;50.960;5.500;2022-09-28T08:12:02;98933.75;;;15.78
59339;BMP280;45117;50.960;5.500;2022-09-28T08:14:29;98925.59;;;15.72
59339;BMP280;45117;50.960;5.500;2022-09-28T08:16:58;98929.59;;;15.56
59339;BMP280;45117;50.960;5.500;2022-09-28T08:19:24;98926.91;;;14.95
59339;BMP280;45117;50.960;5.500;2022-09-28T08:21:52;98943.97;;;15.68
59339;BMP280;45117;50.960;5.500;2022-09-28T08:24:17;98934.69;;;16.27
59339;BMP280;45117;50.960;5.500;2022-09-28T08:26:45;98938.00;;;15.38
59339;BMP280;45117;50.960;5.500;2022-09-28T08:29:11;98940.19;;;16.86
59339;BMP280;45117;50.960;5.500;2022-09-28T08:31:39;98938.91;;;17.35
59339;BMP280;45117;50.960;5.500;2022-09-28T08:34:06;98946.22;;;17.07
59339;BMP280;45117;50.960;5.500;2022-09-28T08:36:32;98946.47;;;17.03
59339;BMP280;45117;50.960;5.500;2022-09-28T08:39:00;98943.63;;;17.40
59339;BMP280;45117;50.960;5.500;2022-09-28T08:41:34;98952.34;;;16.96
59339;BMP280;45117;50.960;5.500;2022-09-28T08:44:14;98945.31;;;17.32
59339;BMP280;45117;50.960;5.500;2022-09-28T08:46:43;98952.09;;;17.65
59339;BMP280;45117;50.960;5.500;2022-09-28T08:49:15;98956.09;;;17.04
59339;BMP280;45117;50.960;5.500;2022-09-28T08:51:46;98959.53;;;17.92
59339;BMP280;45117;50.960;5.500;2022-09-28T08:54:24;98955.34;;;17.91
59339;BMP280;45117;50.960;5.500;2022-09-28T08:56:54;98960.25;;;17.98
59339;BMP280;45117;50.960;5.500;2022-09-28T08:59:25;98961.25;;;18.34
59339;BMP280;45117;50.960;5.500;2022-09-28T09:01:57;98963.94;;;18.40
59339;BMP280;45117;50.960;5.500;2022-09-28T09:04:24;98972.34;;;18.03
59339;BMP280;45117;50.960;5.500;2022-09-28T09:10:04;98975.06;;;17.97
59339;BMP280;45117;50.960;5.500;2022-09-28T09:12:38;98966.44;;;18.38
59339;BMP280;45117;50.960;5.500;2022-09-28T09:15:32;98971.59;;;18.41
59339;BMP280;45117;50.960;5.500;2022-09-28T09:18:17;98969.63;;;17.81
59339;BMP280;45117;50.960;5.500;2022-09-28T09:20:51;98972.31;;;17.69
59339;BMP280;45117;50.960;5.500;2022-09-28T09:23:27;98974.00;;;17.56
59339;BMP280;45117;50.960;5.500;2022-09-28T09:26:01;98967.84;;;17.55
59339;BMP280;45117;50.960;5.500;2022-09-28T09:28:49;98978.28;;;18.07
59339;BMP280;45117;50.960;5.500;2022-09-28T09:31:30;98975.78;;;17.87
59339;BMP280;45117;50.960;5.500;2022-09-28T09:34:28;98981.75;;;18.13
59339;BMP280;45117;50.960;5.500;2022-09-28T09:37:08;98970.59;;;17.72
59339;BMP280;45117;50.960;5.500;2022-09-28T09:39:51;98974.78;;;17.67
59339;BMP280;45117;50.960;5.500;2022-09-28T09:42:34;98979.41;;;17.44
59339;BMP280;45117;50.960;5.500;2022-09-28T09:45:14;98981.69;;;17.74
59339;BMP280;45117;50.960;5.500;2022-09-28T09:47:45;98967.50;;;17.25
59339;BMP280;45117;50.960;5.500;2022-09-28T09:50:19;98986.66;;;17.81
59339;BMP280;45117;50.960;5.500;2022-09-28T09:52:57;98981.19;;;17.64
59339;BMP280;45117;50.960;5.500;2022-09-28T09:55:29;98970.81;;;17.57
59339;BMP280;45117;50.960;5.500;2022-09-28T09:58:03;98961.59;;;17.32
59339;BMP280;45117;50.960;5.500;2022-09-28T10:00:31;98975.28;;;17.77
59339;BMP280;45117;50.960;5.500;2022-09-28T10:02:58;98970.16;;;18.13
59339;BMP280;45117;50.960;5.500;2022-09-28T10:05:29;98974.81;;;17.95
59339;BMP280;45117;50.960;5.500;2022-09-28T10:08:00;98960.06;;;17.09
59339;BMP280;45117;50.960;5.500;2022-09-28T10:10:30;98968.28;;;17.37
59339;BMP280;45117;50.960;5.500;2022-09-28T10:13:00;98959.16;;;17.34
59339;BMP280;45117;50.960;5.500;2022-09-28T10:15:28;98959.78;;;17.07
59339;BMP280;45117;50.960;5.500;2022-09-28T10:17:56;98965.84;;;17.44
59339;BMP280;45117;50.960;5.500;2022-09-28T10:20:32;98953.53;;;16.47
59339;BMP280;45117;50.960;5.500;2022-09-28T10:23:02;98956.03;;;16.56
59339;BMP280;45117;50.960;5.500;2022-09-28T10:25:30;98954.31;;;16.21
59339;BMP280;45117;50.960;5.500;2022-09-28T10:28:00;98967.22;;;17.12
59339;BMP280;45117;50.960;5.500;2022-09-28T10:30:28;98955.53;;;17.60
59339;BMP280;45117;50.960;5.500;2022-09-28T10:32:56;98963.72;;;17.06
59339;BMP280;45117;50.960;5.500;2022-09-28T10:35:27;98968.75;;;17.24
59339;BMP280;45117;50.960;5.500;2022-09-28T10:37:57;98972.53;;;17.60
59339;BMP280;45117;50.960;5.500;2022-09-28T10:40:37;98953.84;;;18.07
59339;BMP280;45117;50.960;5.500;2022-09-28T10:43:15;98961.72;;;17.77
59339;BMP280;45117;50.960;5.500;2022-09-28T10:45:43;98961.88;;;16.86
59339;BMP280;45117;50.960;5.500;2022-09-28T10:48:16;98959.38;;;16.40
59339;BMP280;45117;50.960;5.500;2022-09-28T10:50:56;98956.56;;;16.60
59339;BMP280;45117;50.960;5.500;2022-09-28T10:53:23;98960.75;;;16.24
59339;BMP280;45117;50.960;5.500;2022-09-28T10:55:59;98970.03;;;17.40
59339;BMP280;45117;50.960;5.500;2022-09-28T10:58:30;98966.34;;;17.43
59339;BMP280;45117;50.960;5.500;2022-09-28T11:01:00;98966.31;;;17.37
59339;BMP280;45117;50.960;5.500;2022-09-28T11:03:29;98960.94;;;16.89
59339;BMP280;45117;50.960;5.500;2022-09-28T11:05:58;98962.97;;;16.57
59339;BMP280;45117;50.960;5.500;2022-09-28T11:08:28;98960.66;;;16.44
59339;BMP280;45117;50.960;5.500;2022-09-28T11:11:03;98967.13;;;16.95
59339;BMP280;45117;50.960;5.500;2022-09-28T11:13:40;98966.78;;;17.36
59339;BMP280;45117;50.960;5.500;2022-09-28T11:16:18;98974.38;;;17.21
59339;BMP280;45117;50.960;5.500;2022-09-28T11:18:45;98962.63;;;17.46
59339;BMP280;45117;50.960;5.500;2022-09-28T11:21:14;98964.66;;;17.68
59339;BMP280;45117;50.960;5.500;2022-09-28T11:23:54;98958.22;;;17.48
59339;BMP280;45117;50.960;5.500;2022-09-28T11:26:21;98960.06;;;17.09
59339;BMP280;45117;50.960;5.500;2022-09-28T11:28:51;98960.94;;;16.52
59339;BMP280;45117;50.960;5.500;2022-09-28T11:31:24;98970.66;;;16.33
59339;BMP280;45117;50.960;5.500;2022-09-28T11:34:01;98964.19;;;16.24
59339;BMP280;45117;50.960;5.500;2022-09-28T11:36:39;98966.75;;;16.39
59339;BMP280;45117;50.960;5.500;2022-09-28T11:39:10;98959.56;;;16.31
59339;BMP280;45117;50.960;5.500;2022-09-28T11:41:55;98961.19;;;16.54
59339;BMP280;45117;50.960;5.500;2022-09-28T11:44:38;98959.34;;;16.03
59339;BMP280;45117;50.960;5.500;2022-09-28T11:47:36;98972.59;;;15.75
59339;BMP280;45117;50.960;5.500;2022-09-28T11:50:06;98958.81;;;15.52
59339;BMP280;45117;50.960;5.500;2022-09-28T11:52:42;98960.38;;;15.59
59339;BMP280;45117;50.960;5.500;2022-09-28T11:55:16;98965.38;;;15.66
59339;BMP280;45117;50.960;5.500;2022-09-28T11:57:47;98969.75;;;15.63
59339;BMP280;45117;50.960;5.500;2022-09-28T12:00:18;98967.47;;;15.56
59339;BMP280;45117;50.960;5.500;2022-09-28T12:02:50;98969.16;;;15.33
59339;BMP280;45117;50.960;5.500;2022-09-28T12:05:21;98976.81;;;15.00
59339;BMP280;45117;50.960;5.500;2022-09-28T12:07:52;98965.63;;;14.87
59339;BMP280;45117;50.960;5.500;2022-09-28T12:10:28;98967.38;;;14.90
59339;BMP280;45117;50.960;5.500;2022-09-28T12:12:59;98968.41;;;14.78
59339;BMP280;45117;50.960;5.500;2022-09-28T12:15:39;98963.97;;;14.60
59339;BMP280;45117;50.960;5.500;2022-09-28T12:18:12;98968.31;;;14.72
59339;BMP280;45117;50.960;5.500;2022-09-28T12:20:43;98957.72;;;15.03
59339;BMP280;45117;50.960;5.500;2022-09-28T12:23:14;98960.22;;;14.87
59339;BMP280;45117;50.960;5.500;2022-09-28T12:25:44;98955.03;;;15.03
59339;BMP280;45117;50.960;5.500;2022-09-28T12:28:17;98957.81;;;15.29
59339;BMP280;45117;50.960;5.500;2022-09-28T12:30:46;98956.00;;;15.21
59339;BMP280;45117;50.960;5.500;2022-09-28T12:33:14;98956.25;;;15.23
59339;BMP280;45117;50.960;5.500;2022-09-28T12:35:52;98947.41;;;15.43
59339;BMP280;45117;50.960;5.500;2022-09-28T12:38:36;98950.28;;;15.39
59339;BMP280;45117;50.960;5.500;2022-09-28T12:41:13;98943.69;;;15.60
59339;BMP280;45117;50.960;5.500;2022-09-28T12:43:52;98942.53;;;15.73
59339;BMP280;45117;50.960;5.500;2022-09-28T12:46:47;98954.44;;;16.07
59339;BMP280;45117;50.960;5.500;2022-09-28T12:49:24;98940.84;;;16.01
59339;BMP280;45117;50.960;5.500;2022-09-28T12:51:54;98950.88;;;16.21
59339;BMP280;45117;50.960;5.500;2022-09-28T12:54:37;98943.91;;;16.14
59339;BMP280;45117;50.960;5.500;2022-09-28T12:57:23;98951.69;;;16.33
59339;BMP280;45117;50.960;5.500;2022-09-28T12:59:59;98951.31;;;16.45
59339;BMP280;45117;50.960;5.500;2022-09-28T13:02:40;98957.09;;;17.12
59339;BMP280;45117;50.960;5.500;2022-09-28T13:05:20;98953.03;;;17.45
59339;BMP280;45117;50.960;5.500;2022-09-28T13:07:56;98956.00;;;17.53
59339;BMP280;45117;50.960;5.500;2022-09-28T13:10:32;98965.31;;;16.81
59339;BMP280;45117;50.960;5.500;2022-09-28T13:13:11;98961.13;;;15.85
59339;BMP280;45117;50.960;5.500;2022-09-28T13:15:45;98976.72;;;15.29
59339;BMP280;45117;50.960;5.500;2022-09-28T13:18:21;98970.09;;;14.75
59339;BMP280;45117;50.960;5.500;2022-09-28T13:21:17;98976.16;;;14.55
59339;BMP280;45117;50.960;5.500;2022-09-28T13:23:47;98974.97;;;14.41
59339;BMP280;45117;50.960;5.500;2022-09-28T13:26:19;98983.06;;;14.41
59339;BMP280;45117;50.960;5.500;2022-09-28T13:28:48;98985.28;;;14.28
59339;BMP280;45117;50.960;5.500;2022-09-28T13:31:18;98981.44;;;13.91
59339;BMP280;45117;50.960;5.500;2022-09-28T13:33:48;98977.28;;;14.04
59339;BMP280;45117;50.960;5.500;2022-09-28T13:36:38;98983.16;;;14.18
59339;BMP280;45117;50.960;5.500;2022-09-28T13:39:35;98979.25;;;14.19
59339;BMP280;45117;50.960;5.500;2022-09-28T13:42:04;98969.56;;;14.12
59339;BMP280;45117;50.960;5.500;2022-09-28T13:44:55;98979.22;;;14.04
59339;BMP280;45117;50.960;5.500;2022-09-28T13:47:40;98977.22;;;14.13
59339;BMP280;45117;50.960;5.500;2022-09-28T13:50:25;98981.28;;;14.09
59339;BMP280;45117;50.960;5.500;2022-09-28T13:52:59;98979.69;;;14.17
59339;BMP280;45117;50.960;5.500;2022-09-28T13:55:33;98979.53;;;14.06
59339;BMP280;45117;50.960;5.500;2022-09-28T13:58:05;98976.38;;;14.22
59339;BMP280;45117;50.960;5.500;2022-09-28T14:00:45;98979.06;;;14.22
59339;BMP280;45117;50.960;5.500;2022-09-28T14:03:24;98976.34;;;13.93
59339;BMP280;45117;50.960;5.500;2022-09-28T14:06:04;98979.81;;;14.08
59339;BMP280;45117;50.960;5.500;2022-09-28T14:08:43;98984.47;;;14.22
59339;BMP280;45117;50.960;5.500;2022-09-28T14:11:41;98979.66;;;14.26
59339;BMP280;45117;50.960;5.500;2022-09-28T14:20:15;98979.44;;;14.45
59339;BMP280;45117;50.960;5.500;2022-09-28T14:22:56;98988.31;;;14.30
59339;BMP280;45117;50.960;5.500;2022-09-28T14:25:27;98973.44;;;13.81
59339;BMP280;45117;50.960;5.500;2022-09-28T14:28:00;98999.75;;;13.87
59339;BMP280;45117;50.960;5.500;2022-09-28T14:30:44;99011.75;;;13.86
59339;BMP280;45117;50.960;5.500;2022-09-28T14:33:20;99002.69;;;13.50
59339;BMP280;45117;50.960;5.500;2022-09-28T14:35:49;98995.78;;;13.58
59339;BMP280;45117;50.960;5.500;2022-09-28T14:38:21;98998.09;;;13.41
59339;BMP280;45117;50.960;5.500;2022-09-28T14:41:07;98995.59;;;13.38
59339;BMP280;45117;50.960;5.500;2022-09-28T14:43:56;99007.47;;;13.55
59339;BMP280;45117;50.960;5.500;2022-09-28T14:46:32;99003.59;;;13.23
59339;BMP280;45117;50.960;5.500;2022-09-28T14:49:00;99005.19;;;13.06
59339;BMP280;45117;50.960;5.500;2022-09-28T14:54:49;99004.16;;;12.94
59339;BMP280;45117;50.960;5.500;2022-09-28T14:57:20;99006.13;;;12.93
59339;BMP280;45117;50.960;5.500;2022-09-28T14:59:47;99003.13;;;12.91
59339;BMP280;45117;50.960;5.500;2022-09-28T15:02:19;98997.03;;;12.82
59339;BMP280;45117;50.960;5.500;2022-09-28T15:04:49;98993.91;;;12.74
59339;BMP280;45117;50.960;5.500;2022-09-28T15:07:19;98996.94;;;12.58
59339;BMP280;45117;50.960;5.500;2022-09-28T15:09:48;98993.09;;;12.59
59339;BMP280;45117;50.960;5.500;2022-09-28T15:12:17;98998.59;;;12.64
59339;BMP280;45117;50.960;5.500;2022-09-28T15:14:47;98994.41;;;12.54
59339;BMP280;45117;50.960;5.500;2022-09-28T15:17:18;98995.34;;;12.51
59339;BMP280;45117;50.960;5.500;2022-09-28T15:19:52;99000.56;;;12.27
59339;BMP280;45117;50.960;5.500;2022-09-28T15:22:22;98991.59;;;12.40
59339;BMP280;45117;50.960;5.500;2022-09-28T15:24:55;98994.16;;;12.34
59339;BMP280;45117;50.960;5.500;2022-09-28T15:27:22;98983.38;;;12.43
59339;BMP280;45117;50.960;5.500;2022-09-28T15:29:56;98990.72;;;12.43
59339;BMP280;45117;50.960;5.500;2022-09-28T15:32:23;98992.06;;;12.38
59339;BMP280;45117;50.960;5.500;2022-09-28T15:34:49;98984.44;;;12.36
59339;BMP280;45117;50.960;5.500;2022-09-28T15:37:22;98985.91;;;12.56
59339;BMP280;45117;50.960;5.500;2022-09-28T15:39:50;98997.13;;;12.54
59339;BMP280;45117;50.960;5.500;2022-09-28T15:42:19;98989.78;;;12.55
59339;BMP280;45117;50.960;5.500;2022-09-28T15:45:00;98990.50;;;12.64
59339;BMP280;45117;50.960;5.500;2022-09-28T15:47:28;98995.47;;;12.57
59339;BMP280;45117;50.960;5.500;2022-09-28T15:49:58;99002.03;;;12.65
59339;BMP280;45117;50.960;5.500;2022-09-28T15:52:29;99000.22;;;12.71
59339;BMP280;45117;50.960;5.500;2022-09-28T15:55:00;99005.09;;;12.91
59339;BMP280;45117;50.960;5.500;2022-09-28T15:57:32;99012.88;;;12.89
59339;BMP280;45117;50.960;5.500;2022-09-28T16:00:00;99017.38;;;12.92
59339;BMP280;45117;50.960;5.500;2022-09-28T16:02:26;99008.34;;;12.95
59339;BMP280;45117;50.960;5.500;2022-09-28T16:04:54;99013.81;;;12.77
59339;BMP280;45117;50.960;5.500;2022-09-28T16:10:55;99025.72;;;12.94
59339;BMP280;45117;50.960;5.500;2022-09-28T16:13:24;99023.34;;;12.96
59339;BMP280;45117;50.960;5.500;2022-09-28T16:15:55;99022.34;;;13.08
59339;BMP280;45117;50.960;5.500;2022-09-28T16:18:24;99027.63;;;13.03
59339;BMP280;45117;50.960;5.500;2022-09-28T16:20:53;99027.00;;;13.08
59339;BMP280;45117;50.960;5.500;2022-09-28T16:23:23;99019.56;;;13.03
59339;BMP280;45117;50.960;5.500;2022-09-28T16:25:54;99024.50;;;12.95
59339;BMP280;45117;50.960;5.500;2022-09-28T16:28:29;99017.31;;;13.01
59339;BMP280;45117;50.960;5.500;2022-09-28T16:31:23;99024.72;;;13.15
59339;BMP280;45117;50.960;5.500;2022-09-28T16:33:53;99024.78;;;13.06
59339;BMP280;45117;50.960;5.500;2022-09-28T16:36:20;99027.81;;;12.90
59339;BMP280;45117;50.960;5.500;2022-09-28T16:38:48;99024.16;;;12.69
59339;BMP280;45117;50.960;5.500;2022-09-28T16:41:16;99025.75;;;12.85
59339;BMP280;45117;50.960;5.500;2022-09-28T16:43:46;99024.69;;;12.82
59339;BMP280;45117;50.960;5.500;2022-09-28T16:46:14;99026.38;;;12.80
59339;BMP280;45117;50.960;5.500;2022-09-28T16:48:43;99030.72;;;12.68
59339;BMP280;45117;50.960;5.500;2022-09-28T16:51:13;99032.41;;;12.56
59339;BMP280;45117;50.960;5.500;2022-09-28T16:53:39;99035.09;;;12.56
59339;BMP280;45117;50.960;5.500;2022-09-28T16:56:25;99036.00;;;12.35
59339;BMP280;45117;50.960;5.500;2022-09-28T16:58:53;99031.53;;;12.23
59339;BMP280;45117;50.960;5.500;2022-09-28T17:01:20;99031.81;;;12.16
59339;BMP280;45117;50.960;5.500;2022-09-28T17:03:47;99039.13;;;12.06
59339;BMP280;45117;50.960;5.500;2022-09-28T17:06:15;99039.28;;;12.02
59339;BMP280;45117;50.960;5.500;2022-09-28T17:08:42;99042.84;;;11.90
59339;BMP280;45117;50.960;5.500;2022-09-28T17:11:12;99040.28;;;11.77
59339;BMP280;45117;50.960;5.500;2022-09-28T17:13:39;99037.31;;;11.75
59339;BMP280;45117;50.960;5.500;2022-09-28T17:16:11;99036.56;;;11.75
59339;BMP280;45117;50.960;5.500;2022-09-28T17:18:38;99040.41;;;11.65
59339;BMP280;45117;50.960;5.500;2022-09-28T17:21:08;99041.31;;;11.62
59339;BMP280;45117;50.960;5.500;2022-09-28T17:23:34;99035.75;;;11.56
59339;BMP280;45117;50.960;5.500;2022-09-28T17:26:01;99031.44;;;11.49
59339;BMP280;45117;50.960;5.500;2022-09-28T17:28:31;99035.84;;;11.43
59339;BMP280;45117;50.960;5.500;2022-09-28T17:30:57;99033.47;;;11.36
59339;BMP280;45117;50.960;5.500;2022-09-28T17:33:25;99040.59;;;11.30
59339;BMP280;45117;50.960;5.500;2022-09-28T17:35:56;99036.72;;;11.31
59339;BMP280;45117;50.960;5.500;2022-09-28T17:38:24;99043.53;;;11.23
59339;BMP280;45117;50.960;5.500;2022-09-28T17:40:51;99046.66;;;11.12
59339;BMP280;45117;50.960;5.500;2022-09-28T17:43:17;99046.88;;;11.05
59339;BMP280;45117;50.960;5.500;2022-09-28T17:45:45;99045.97;;;10.99
59339;BMP280;45117;50.960;5.500;2022-09-28T17:48:14;99049.66;;;10.92
59339;BMP280;45117;50.960;5.500;2022-09-28T17:50:44;99044.72;;;10.91
59339;BMP280;45117;50.960;5.500;2022-09-28T17:53:11;99045.91;;;10.90
59339;BMP280;45117;50.960;5.500;2022-09-28T17:55:38;99053.81;;;10.93
59339;BMP280;45117;50.960;5.500;2022-09-28T17:58:13;99062.63;;;10.94
59339;BMP280;45117;50.960;5.500;2022-09-28T18:00:40;99068.78;;;10.95
59339;BMP280;45117;50.960;5.500;2022-09-28T18:03:12;99071.47;;;10.95
59339;BMP280;45117;50.960;5.500;2022-09-28T18:05:40;99068.00;;;10.94
59339;BMP280;45117;50.960;5.500;2022-09-28T18:08:11;99069.47;;;10.86
59339;BMP280;45117;50.960;5.500;2022-09-28T18:10:38;99073.13;;;10.79
59339;BMP280;45117;50.960;5.500;2022-09-28T18:13:04;99064.63;;;10.81
59339;BMP280;45117;50.960;5.500;2022-09-28T18:15:31;99063.25;;;10.76
59339;BMP280;45117;50.960;5.500;2022-09-28T18:17:58;99075.81;;;10.79
59339;BMP280;45117;50.960;5.500;2022-09-28T18:20:24;99077.25;;;10.71
59339;BMP280;45117;50.960;5.500;2022-09-28T18:22:51;99073.81;;;10.71
59339;BMP280;45117;50.960;5.500;2022-09-28T18:25:19;99082.31;;;10.69
59339;BMP280;45117;50.960;5.500;2022-09-28T18:27:45;99084.78;;;10.63
59339;BMP280;45117;50.960;5.500;2022-09-28T18:30:12;99079.22;;;10.58
59339;BMP280;45117;50.960;5.500;2022-09-28T18:32:38;99081.91;;;10.58
59339;BMP280;45117;50.960;5.500;2022-09-28T18:35:07;99080.97;;;10.52
59339;BMP280;45117;50.960;5.500;2022-09-28T18:37:34;99076.72;;;10.42
59339;BMP280;45117;50.960;5.500;2022-09-28T18:40:02;99091.88;;;10.35
59339;BMP280;45117;50.960;5.500;2022-09-28T18:42:30;99092.28;;;10.34
59339;BMP280;45117;50.960;5.500;2022-09-28T18:44:59;99089.84;;;10.27
59339;BMP280;45117;50.960;5.500;2022-09-28T18:47:26;99091.75;;;10.26
59339;BMP280;45117;50.960;5.500;2022-09-28T18:49:52;99089.75;;;10.18
59339;BMP280;45117;50.960;5.500;2022-09-28T18:52:22;99090.81;;;10.20
59339;BMP280;45117;50.960;5.500;2022-09-28T18:54:48;99095.00;;;10.08
59339;BMP280;45117;50.960;5.500;2022-09-28T18:57:15;99094.41;;;10.04
59339;BMP280;45117;50.960;5.500;2022-09-28T18:59:43;99088.81;;;9.99
59339;BMP280;45117;50.960;5.500;2022-09-28T19:02:10;99098.78;;;9.98
59339;BMP280;45117;50.960;5.500;2022-09-28T19:04:37;99097.91;;;9.89
59339;BMP280;45117;50.960;5.500;2022-09-28T19:07:04;99096.97;;;9.83
59339;BMP280;45117;50.960;5.500;2022-09-28T19:09:31;99097.41;;;9.81
59339;BMP280;45117;50.960;5.500;2022-09-28T19:11:57;99093.44;;;9.73
59339;BMP280;45117;50.960;5.500;2022-09-28T19:14:24;99098.38;;;9.74
59339;BMP280;45117;50.960;5.500;2022-09-28T19:16:52;99102.44;;;9.66
59339;BMP280;45117;50.960;5.500;2022-09-28T19:19:19;99104.25;;;9.57
59339;BMP280;45117;50.960;5.500;2022-09-28T19:21:45;99104.66;;;9.55
59339;BMP280;45117;50.960;5.500;2022-09-28T19:24:13;99111.75;;;9.49
59339;BMP280;45117;50.960;5.500;2022-09-28T19:26:41;99108.72;;;9.47
59339;BMP280;45117;50.960;5.500;2022-09-28T19:29:08;99109.59;;;9.44
59339;BMP280;45117;50.960;5.500;2022-09-28T19:31:35;99110.22;;;9.35
59339;BMP280;45117;50.960;5.500;2022-09-28T19:34:03;99106.78;;;9.35
59339;BMP280;45117;50.960;5.500;2022-09-28T19:36:30;99104.63;;;9.30
59339;BMP280;45117;50.960;5.500;2022-09-28T19:38:58;99105.59;;;9.23
59339;BMP280;45117;50.960;5.500;2022-09-28T19:41:27;99103.44;;;9.18
59339;BMP280;45117;50.960;5.500;2022-09-28T19:44:10;99105.22;;;9.08
59339;BMP280;45117;50.960;5.500;2022-09-28T19:46:38;99118.28;;;9.06
59339;BMP280;45117;50.960;5.500;2022-09-28T19:49:08;99111.53;;;9.02
59339;BMP280;45117;50.960;5.500;2022-09-28T19:51:35;99115.03;;;8.99
59339;BMP280;45117;50.960;5.500;2022-09-28T19:54:02;99116.63;;;8.96
59339;BMP280;45117;50.960;5.500;2022-09-28T19:56:29;99120.19;;;8.93
59339;BMP280;45117;50.960;5.500;2022-09-28T19:58:57;99115.44;;;8.84
59339;BMP280;45117;50.960;5.500;2022-09-28T20:01:24;99120.19;;;8.93
59339;BMP280;45117;50.960;5.500;2022-09-28T20:03:50;99121.00;;;8.90
59339;BMP280;45117;50.960;5.500;2022-09-28T20:06:20;99115.72;;;8.86
59339;BMP280;45117;50.960;5.500;2022-09-28T20:08:47;99128.47;;;8.82
59339;BMP280;45117;50.960;5.500;2022-09-28T20:11:13;99122.78;;;8.80
59339;BMP280;45117;50.960;5.500;2022-09-28T20:13:40;99119.94;;;8.71
59339;BMP280;45117;50.960;5.500;2022-09-28T20:16:08;99121.88;;;8.71
59339;BMP280;45117;50.960;5.500;2022-09-28T20:18:37;99122.63;;;8.71
59339;BMP280;45117;50.960;5.500;2022-09-28T20:21:06;99120.78;;;8.68
59339;BMP280;45117;50.960;5.500;2022-09-28T20:23:35;99125.50;;;8.64
59339;BMP280;45117;50.960;5.500;2022-09-28T20:26:01;99126.31;;;8.61
59339;BMP280;45117;50.960;5.500;2022-09-28T20:28:29;99115.88;;;8.50
59339;BMP280;45117;50.960;5.500;2022-09-28T20:31:00;99122.97;;;8.57
59339;BMP280;45117;50.960;5.500;2022-09-28T20:33:27;99124.56;;;8.54
59339;BMP280;45117;50.960;5.500;2022-09-28T20:35:53;99126.16;;;8.52
59339;BMP280;45117;50.960;5.500;2022-09-28T20:38:20;99122.38;;;8.49
59339;BMP280;45117;50.960;5.500;2022-09-28T20:40:49;99124.75;;;8.47
59339;BMP280;45117;50.960;5.500;2022-09-28T20:43:15;99121.06;;;8.41
59339;BMP280;45117;50.960;5.500;2022-09-28T20:45:42;99125.72;;;8.37
59339;BMP280;45117;50.960;5.500;2022-09-28T20:48:09;99115.91;;;8.34
59339;BMP280;45117;50.960;5.500;2022-09-28T20:50:35;99119.41;;;8.31
59339;BMP280;45117;50.960;5.500;2022-09-28T20:53:02;99125.25;;;8.26
59339;BMP280;45117;50.960;5.500;2022-09-28T20:55:28;99123.72;;;8.25
59339;BMP280;45117;50.960;5.500;2022-09-28T20:58:00;99132.94;;;8.24
59339;BMP280;45117;50.960;5.500;2022-09-28T21:00:27;99127.34;;;8.18
59339;BMP280;45117;50.960;5.500;2022-09-28T21:02:54;99122.06;;;8.14
59339;BMP280;45117;50.960;5.500;2022-09-28T21:05:20;99125.19;;;8.13
59339;BMP280;45117;50.960;5.500;2022-09-28T21:07:47;99128.25;;;8.11
59339;BMP280;45117;50.960;5.500;2022-09-28T21:10:13;99127.16;;;8.09
59339;BMP280;45117;50.960;5.500;2022-09-28T21:12:40;99122.22;;;8.07
59339;BMP280;45117;50.960;5.500;2022-09-28T21:15:09;99118.47;;;8.05
59339;BMP280;45117;50.960;5.500;2022-09-28T21:17:36;99130.00;;;8.02
59339;BMP280;45117;50.960;5.500;2022-09-28T21:20:03;99124.28;;;8.00
59339;BMP280;45117;50.960;5.500;2022-09-28T21:22:30;99126.41;;;7.92
59339;BMP280;45117;50.960;5.500;2022-09-28T21:24:56;99123.78;;;7.89
59339;BMP280;45117;50.960;5.500;2022-09-28T21:27:23;99127.63;;;7.88
59339;BMP280;45117;50.960;5.500;2022-09-28T21:29:49;99123.19;;;7.81
59339;BMP280;45117;50.960;5.500;2022-09-28T21:32:17;99124.59;;;7.85
59339;BMP280;45117;50.960;5.500;2022-09-28T21:34:43;99119.78;;;7.80
59339;BMP280;45117;50.960;5.500;2022-09-28T21:37:10;99124.75;;;7.78
59339;BMP280;45117;50.960;5.500;2022-09-28T21:39:36;99122.94;;;7.75
59339;BMP280;45117;50.960;5.500;2022-09-28T21:42:03;99125.19;;;7.77
59339;BMP280;45117;50.960;5.500;2022-09-28T21:44:30;99124.91;;;7.71
59339;BMP280;45117;50.960;5.500;2022-09-28T21:46:56;99124.50;;;7.73
59339;BMP280;45117;50.960;5.500;2022-09-28T21:49:24;99129.81;;;7.73
59339;BMP280;45117;50.960;5.500;2022-09-28T21:51:50;99134.41;;;7.72
59339;BMP280;45117;50.960;5.500;2022-09-28T21:54:17;99130.66;;;7.70
59339;BMP280;45117;50.960;5.500;2022-09-28T21:56:43;99142.19;;;7.67
59339;BMP280;45117;50.960;5.500;2022-09-28T21:59:10;99137.19;;;7.69
59339;BMP280;45117;50.960;5.500;2022-09-28T22:01:36;99137.19;;;7.69
59339;BMP280;45117;50.960;5.500;2022-09-28T22:04:03;99135.31;;;7.66
59339;BMP280;45117;50.960;5.500;2022-09-28T22:06:31;99143.69;;;7.68
59339;BMP280;45117;50.960;5.500;2022-09-28T22:08:58;99143.25;;;7.69
59339;BMP280;45117;50.960;5.500;2022-09-28T22:11:26;99141.34;;;7.70
59339;BMP280;45117;50.960;5.500;2022-09-28T22:13:54;99148.66;;;7.66
59339;BMP280;45117;50.960;5.500;2022-09-28T22:16:23;99145.25;;;7.65
59339;BMP280;45117;50.960;5.500;2022-09-28T22:18:50;99142.28;;;7.59
59339;BMP280;45117;50.960;5.500;2022-09-28T22:21:18;99148.84;;;7.58